createdAt,value
2023-02-06T00:01:34.521Z,20.93
2023-02-06T00:04:02.593Z,20.63
2023-02-06T00:06:30.859Z,21.20
2023-02-06T00:08:58.850Z,22.87
2023-02-06T00:11:28.249Z,22.57
2023-02-06T00:13:56.386Z,23.77
2023-02-06T00:16:26.918Z,23.07
2023-02-06T00:18:56.207Z,22.10
2023-02-06T00:21:25.944Z,22.13
2023-02-06T00:23:56.320Z,19.80
2023-02-06T00:26:25.105Z,23.90
2023-02-06T00:28:54.476Z,22.77
2023-02-06T00:31:22.661Z,24.83
2023-02-06T00:33:50.787Z,20.70
2023-02-06T00:36:19.038Z,22.20
2023-02-06T00:38:47.104Z,23.47
2023-02-06T00:41:15.140Z,23.10
2023-02-06T00:43:43.550Z,24.87
2023-02-06T00:46:13.085Z,22.53
2023-02-06T00:48:42.100Z,18.77
2023-02-06T00:51:10.237Z,22.40
2023-02-06T00:53:39.476Z,23.60
2023-02-06T00:56:07.750Z,23.80
2023-02-06T00:58:35.866Z,22.73
2023-02-06T01:01:03.961Z,22.23
2023-02-06T01:03:33.361Z,21.07
2023-02-06T01:06:01.378Z,23.73
2023-02-06T01:08:29.690Z,21.80
2023-02-06T01:10:57.691Z,24.57
2023-02-06T01:13:25.747Z,22.77
2023-02-06T01:15:53.784Z,22.90
2023-02-06T01:18:21.759Z,23.43
2023-02-06T01:20:51.118Z,22.43
2023-02-06T01:23:19.166Z,22.03
2023-02-06T01:25:47.137Z,23.50
2023-02-06T01:28:15.192Z,24.20
2023-02-06T01:30:43.154Z,23.80
2023-02-06T01:33:11.118Z,24.50
2023-02-06T01:35:39.143Z,23.93
2023-02-06T01:38:08.478Z,23.80
2023-02-06T01:40:36.568Z,25.00
2023-02-06T01:43:04.628Z,25.13
2023-02-06T01:45:46.468Z,26.63
2023-02-06T01:48:20.153Z,23.20
2023-02-06T01:50:52.343Z,24.20
2023-02-06T01:53:22.609Z,27.10
2023-02-06T01:55:52.710Z,26.10
2023-02-06T01:58:27.007Z,28.40
2023-02-06T02:00:56.042Z,27.07
2023-02-06T02:03:24.160Z,26.57
2023-02-06T02:05:54.587Z,24.07
2023-02-06T02:08:28.854Z,26.10
2023-02-06T02:10:57.209Z,24.27
2023-02-06T02:13:25.271Z,27.20
2023-02-06T02:15:59.945Z,26.17
2023-02-06T02:18:41.916Z,26.57
2023-02-06T02:21:43.098Z,27.80
2023-02-06T02:24:18.471Z,26.73
2023-02-06T02:27:12.167Z,27.60
2023-02-06T02:30:17.741Z,25.60
2023-02-06T02:33:09.375Z,25.40
2023-02-06T02:35:51.043Z,28.27
2023-02-06T02:38:28.591Z,25.63
2023-02-06T02:41:04.242Z,28.73
2023-02-06T02:43:39.423Z,24.30
2023-02-06T02:46:15.485Z,25.60
2023-02-06T02:48:46.755Z,28.27
2023-02-06T02:51:17.418Z,25.80
2023-02-06T02:53:45.496Z,24.77
2023-02-06T02:56:17.697Z,22.30
2023-02-06T02:58:48.344Z,27.47
2023-02-06T03:01:22.579Z,27.43
2023-02-06T03:03:52.839Z,27.00
2023-02-06T03:06:35.362Z,27.13
2023-02-06T03:09:09.656Z,27.03
2023-02-06T03:11:42.330Z,26.37
2023-02-06T03:14:16.708Z,26.83
2023-02-06T03:16:48.728Z,26.40
2023-02-06T03:19:21.502Z,26.43
2023-02-06T03:21:51.290Z,25.50
2023-02-06T03:24:24.605Z,26.60
2023-02-06T03:26:58.392Z,27.10
2023-02-06T03:29:29.220Z,27.77
2023-02-06T03:32:00.377Z,27.57
2023-02-06T03:34:36.076Z,27.73
2023-02-06T03:37:05.372Z,28.63
2023-02-06T03:39:33.445Z,26.93
2023-02-06T03:42:03.218Z,27.53
2023-02-06T03:44:35.305Z,28.23
2023-02-06T03:47:05.010Z,25.07
2023-02-06T03:49:35.930Z,25.20
2023-02-06T03:52:08.566Z,25.20
2023-02-06T03:54:40.658Z,25.00
2023-02-06T03:57:13.137Z,26.40
2023-02-06T03:59:41.414Z,25.83
2023-02-06T04:02:10.035Z,24.47
2023-02-06T04:04:40.210Z,25.87
2023-02-06T04:07:14.588Z,24.73
2023-02-06T04:09:42.826Z,27.90
2023-02-06T04:12:11.077Z,26.60
2023-02-06T04:14:39.091Z,24.93
2023-02-06T04:17:08.168Z,26.00
2023-02-06T04:19:37.947Z,23.50
2023-02-06T04:22:06.404Z,22.53
2023-02-06T04:24:36.815Z,24.20
2023-02-06T04:27:04.878Z,24.23
2023-02-06T04:29:32.907Z,25.20
2023-02-06T04:32:02.268Z,26.23
2023-02-06T04:34:30.517Z,26.73
2023-02-06T04:36:59.091Z,27.30
2023-02-06T04:39:27.657Z,26.13
2023-02-06T04:41:57.279Z,24.90
2023-02-06T04:44:25.520Z,27.20
2023-02-06T04:46:53.488Z,27.20
2023-02-06T04:49:21.597Z,25.73
2023-02-06T04:51:49.599Z,26.23
2023-02-06T04:54:17.650Z,25.73
2023-02-06T04:56:46.202Z,25.70
2023-02-06T04:59:15.616Z,26.20
2023-02-06T05:01:43.709Z,24.73
2023-02-06T05:04:11.747Z,25.37
2023-02-06T05:06:39.775Z,25.40
2023-02-06T05:09:08.060Z,24.53
2023-02-06T05:11:36.009Z,26.20
2023-02-06T05:14:04.039Z,27.23
2023-02-06T05:16:33.464Z,25.07
2023-02-06T05:19:01.479Z,26.80
2023-02-06T05:21:29.524Z,23.70
2023-02-06T05:23:57.434Z,25.13
2023-02-06T05:26:25.400Z,25.80
2023-02-06T05:28:53.792Z,23.83
2023-02-06T05:31:21.859Z,25.07
2023-02-06T05:33:52.926Z,25.17
2023-02-06T05:36:21.873Z,25.73
2023-02-06T05:38:50.231Z,26.07
2023-02-06T05:41:18.882Z,26.47
2023-02-06T05:43:46.971Z,23.83
2023-02-06T05:46:15.184Z,26.90
2023-02-06T05:48:43.200Z,24.47
2023-02-06T05:51:12.822Z,25.57
2023-02-06T05:53:40.893Z,24.13
2023-02-06T05:56:08.954Z,24.93
2023-02-06T05:58:37.010Z,25.70
2023-02-06T06:01:05.244Z,24.10
2023-02-06T06:03:33.591Z,23.50
2023-02-06T06:06:01.661Z,26.83
2023-02-06T06:08:31.326Z,24.03
2023-02-06T06:11:01.765Z,25.93
2023-02-06T06:13:30.014Z,25.57
2023-02-06T06:15:58.054Z,25.17
2023-02-06T06:18:26.126Z,24.53
2023-02-06T06:20:54.842Z,24.20
2023-02-06T06:23:22.993Z,23.80
2023-02-06T06:25:52.313Z,23.50
2023-02-06T06:28:20.346Z,24.10
2023-02-06T06:30:48.319Z,24.23
2023-02-06T06:33:16.663Z,23.53
2023-02-06T06:35:44.790Z,23.70
2023-02-06T06:38:12.765Z,24.57
2023-02-06T06:40:41.908Z,24.13
2023-02-06T06:43:11.376Z,22.63
2023-02-06T06:45:39.670Z,23.37
2023-02-06T06:48:07.833Z,22.07
2023-02-06T06:50:35.919Z,20.97
2023-02-06T06:53:04.179Z,20.53
2023-02-06T06:55:32.609Z,21.30
2023-02-06T06:58:00.604Z,21.10
2023-02-06T07:00:29.977Z,19.23
2023-02-06T07:02:58.012Z,21.40
2023-02-06T07:05:26.263Z,21.90
2023-02-06T07:07:54.234Z,20.63
2023-02-06T07:10:22.176Z,19.13
2023-02-06T07:12:53.404Z,19.20
2023-02-06T07:15:21.713Z,19.50
2023-02-06T07:17:53.326Z,18.40
2023-02-06T07:20:21.534Z,18.83
2023-02-06T07:22:50.324Z,18.23
2023-02-06T07:25:20.274Z,18.00
2023-02-06T07:27:48.679Z,17.47
2023-02-06T07:30:16.916Z,18.93
2023-02-06T07:32:44.962Z,17.80
2023-02-06T07:35:15.269Z,17.40
2023-02-06T07:37:43.358Z,16.80
2023-02-06T07:40:12.707Z,16.83
2023-02-06T07:42:40.800Z,15.80
2023-02-06T07:45:09.684Z,15.73
2023-02-06T07:47:37.727Z,16.97
2023-02-06T07:50:06.186Z,15.87
2023-02-06T07:52:44.165Z,15.70
2023-02-06T07:55:12.180Z,16.90
2023-02-06T07:57:40.170Z,15.67
2023-02-06T08:00:09.631Z,14.10
2023-02-06T08:02:37.552Z,15.30
2023-02-06T08:05:05.698Z,14.90
2023-02-06T08:07:35.135Z,13.13
2023-02-06T08:10:03.176Z,12.90
2023-02-06T08:12:31.790Z,13.50
2023-02-06T08:14:59.730Z,13.40
2023-02-06T08:17:28.036Z,12.83
2023-02-06T08:19:56.002Z,13.93
2023-02-06T08:22:23.985Z,13.77
2023-02-06T08:24:53.271Z,13.33
2023-02-06T08:27:21.288Z,12.87
2023-02-06T08:29:49.275Z,11.67
2023-02-06T08:32:17.259Z,13.10
2023-02-06T08:34:45.299Z,14.10
2023-02-06T08:37:13.365Z,13.90
2023-02-06T08:39:41.432Z,12.67
2023-02-06T08:42:10.695Z,13.13
2023-02-06T08:44:38.627Z,13.70
2023-02-06T08:47:10.297Z,12.60
2023-02-06T08:49:39.113Z,12.80
2023-02-06T08:52:07.371Z,12.57
2023-02-06T08:54:37.737Z,13.00
2023-02-06T08:57:07.168Z,11.00
2023-02-06T08:59:38.324Z,10.73
2023-02-06T09:02:08.283Z,11.50
2023-02-06T09:04:37.773Z,10.60
2023-02-06T09:07:05.952Z,9.83
2023-02-06T09:09:33.960Z,9.70
2023-02-06T09:12:03.874Z,8.87
2023-02-06T09:14:32.909Z,9.40
2023-02-06T09:17:02.576Z,10.97
2023-02-06T09:19:30.605Z,9.77
2023-02-06T09:21:58.582Z,8.50
2023-02-06T09:24:27.278Z,8.47
2023-02-06T09:27:00.158Z,8.60
2023-02-06T09:29:31.650Z,8.77
2023-02-06T09:32:01.860Z,9.23
2023-02-06T09:34:31.287Z,8.50
2023-02-06T09:36:59.262Z,8.20
2023-02-06T09:39:27.482Z,8.60
2023-02-06T09:42:00.630Z,8.80
2023-02-06T09:44:32.775Z,7.70
2023-02-06T09:47:06.081Z,8.30
2023-02-06T09:49:40.721Z,8.17
2023-02-06T09:52:27.201Z,8.20
2023-02-06T09:55:04.047Z,7.47
2023-02-06T09:57:42.739Z,6.93
2023-02-06T10:00:25.358Z,6.57
2023-02-06T10:03:17.137Z,6.00
2023-02-06T10:05:52.658Z,6.60
2023-02-06T10:08:26.715Z,7.70
2023-02-06T10:10:57.453Z,6.00
2023-02-06T10:13:30.547Z,7.10
2023-02-06T10:16:02.430Z,6.00
2023-02-06T10:18:35.988Z,5.57
2023-02-06T10:21:11.241Z,5.10
2023-02-06T10:23:45.583Z,5.30
2023-02-06T10:26:18.350Z,5.47
2023-02-06T10:28:49.702Z,4.67
2023-02-06T10:31:35.030Z,5.20
2023-02-06T10:34:32.473Z,5.20
2023-02-06T10:37:20.785Z,4.20
2023-02-06T10:40:02.946Z,5.00
2023-02-06T10:42:43.660Z,5.10
2023-02-06T10:45:20.149Z,4.37
2023-02-06T10:48:00.172Z,4.10
2023-02-06T10:50:33.519Z,3.83
2023-02-06T10:53:07.334Z,3.80
2023-02-06T10:55:46.369Z,3.00
2023-02-06T10:58:19.818Z,4.30
2023-02-06T11:00:49.308Z,4.37
2023-02-06T11:03:20.974Z,4.40
2023-02-06T11:05:50.083Z,4.00
2023-02-06T11:08:30.400Z,4.07
2023-02-06T11:10:59.050Z,3.47
2023-02-06T11:13:29.152Z,2.90
2023-02-06T11:16:02.617Z,3.13
2023-02-06T11:18:35.513Z,3.70
2023-02-06T11:21:04.615Z,5.00
2023-02-06T11:23:35.108Z,4.60
2023-02-06T11:26:10.684Z,4.40
2023-02-06T11:28:42.373Z,4.03
2023-02-06T11:31:13.100Z,3.83
2023-02-06T11:33:48.359Z,3.50
2023-02-06T11:36:26.977Z,3.43
2023-02-06T11:38:58.604Z,4.27
2023-02-06T11:41:27.065Z,3.40
2023-02-06T11:44:02.385Z,3.60
2023-02-06T11:46:35.115Z,4.10
2023-02-06T11:49:06.607Z,4.80
2023-02-06T11:51:51.501Z,4.40
2023-02-06T11:54:25.106Z,4.50
2023-02-06T11:57:05.231Z,4.40
2023-02-06T11:59:35.415Z,4.50
2023-02-06T12:02:07.026Z,3.93
2023-02-06T12:04:38.120Z,4.30
2023-02-06T12:07:15.116Z,4.50
2023-02-06T12:09:44.837Z,4.43
2023-02-06T12:12:23.694Z,4.60
2023-02-06T12:14:56.373Z,4.30
2023-02-06T12:17:30.004Z,4.50
2023-02-06T12:20:04.764Z,4.70
2023-02-06T12:22:37.739Z,4.30
2023-02-06T12:25:22.834Z,5.13
2023-02-06T12:27:56.213Z,5.97
2023-02-06T12:30:32.908Z,6.17
2023-02-06T12:33:07.635Z,5.87
2023-02-06T12:35:41.179Z,5.97
2023-02-06T12:38:17.425Z,5.50
2023-02-06T12:40:52.695Z,6.10
2023-02-06T12:43:23.617Z,5.53
2023-02-06T12:45:57.542Z,5.23
2023-02-06T12:48:31.884Z,5.27
2023-02-06T12:51:08.736Z,6.50
2023-02-06T12:53:42.064Z,6.07
2023-02-06T12:56:24.808Z,7.30
2023-02-06T12:59:02.548Z,5.60
2023-02-06T13:01:43.996Z,5.50
2023-02-06T13:04:16.789Z,5.60
2023-02-06T13:06:49.932Z,5.60
2023-02-06T13:09:23.973Z,5.70
2023-02-06T13:11:53.849Z,5.90
2023-02-06T13:14:24.400Z,5.83
2023-02-06T13:16:56.365Z,4.37
2023-02-06T13:19:51.742Z,3.43
2023-02-06T13:22:36.362Z,4.03
2023-02-06T13:25:52.788Z,3.87
2023-02-06T13:28:44.358Z,4.67
2023-02-06T13:31:25.689Z,3.40
2023-02-06T13:33:57.296Z,4.60
2023-02-06T13:36:43.565Z,4.50
2023-02-06T13:39:23.410Z,4.53
2023-02-06T13:41:52.776Z,4.47
2023-02-06T13:44:26.248Z,4.00
2023-02-06T13:47:20.774Z,3.90
2023-02-06T13:50:25.630Z,4.70
2023-02-06T13:53:38.641Z,4.63
2023-02-06T13:56:32.861Z,4.50
2023-02-06T13:59:06.520Z,3.47
2023-02-06T14:01:36.992Z,4.53
2023-02-06T14:04:10.257Z,3.70
2023-02-06T14:06:55.136Z,4.27
2023-02-06T14:09:43.026Z,2.80
2023-02-06T14:12:35.346Z,3.60
2023-02-06T14:15:28.327Z,3.57
2023-02-06T14:18:19.132Z,3.43
2023-02-06T14:20:58.233Z,2.57
2023-02-06T14:23:36.265Z,3.30
2023-02-06T14:26:19.539Z,2.87
2023-02-06T14:28:56.516Z,3.60
2023-02-06T14:31:38.977Z,3.70
2023-02-06T14:34:23.550Z,3.90
2023-02-06T14:37:20.708Z,4.60
2023-02-06T14:39:51.361Z,3.37
2023-02-06T14:42:23.838Z,3.80
2023-02-06T14:44:57.112Z,3.60
2023-02-06T14:47:29.101Z,3.30
2023-02-06T14:50:00.533Z,3.27
2023-02-06T14:52:33.193Z,3.50
2023-02-06T14:55:01.374Z,3.20
2023-02-06T14:57:31.705Z,3.00
2023-02-06T15:00:01.913Z,2.90
2023-02-06T15:02:32.412Z,2.80
2023-02-06T15:05:03.051Z,3.27
2023-02-06T15:07:33.239Z,3.17
2023-02-06T15:10:06.781Z,3.60
2023-02-06T15:12:35.866Z,3.53
2023-02-06T15:15:16.708Z,3.17
2023-02-06T15:17:44.945Z,3.57
2023-02-06T15:20:26.034Z,2.77
2023-02-06T15:22:58.162Z,3.00
2023-02-06T15:25:41.333Z,3.03
2023-02-06T15:28:18.728Z,2.87
2023-02-06T15:30:47.562Z,3.37
2023-02-06T15:33:23.022Z,2.80
2023-02-06T15:35:55.341Z,3.03
2023-02-06T15:38:25.880Z,3.10
2023-02-06T15:40:56.272Z,3.30
2023-02-06T15:43:26.923Z,3.70
2023-02-06T15:45:57.101Z,5.03
2023-02-06T15:48:28.701Z,3.90
2023-02-06T15:51:00.547Z,3.73
2023-02-06T15:53:34.689Z,4.00
2023-02-06T15:56:05.024Z,3.30
2023-02-06T15:58:34.617Z,4.50
2023-02-06T16:01:05.816Z,3.27
2023-02-06T16:03:33.921Z,3.47
2023-02-06T16:06:03.371Z,4.10
2023-02-06T16:08:34.622Z,4.93
2023-02-06T16:11:26.457Z,4.80
2023-02-06T16:13:54.889Z,5.30
2023-02-06T16:16:25.229Z,4.53
2023-02-06T16:18:58.516Z,4.20
2023-02-06T16:21:30.209Z,3.90
2023-02-06T16:24:15.148Z,4.50
2023-02-06T16:26:47.055Z,3.77
2023-02-06T16:29:23.956Z,3.90
2023-02-06T16:31:59.008Z,3.33
2023-02-06T16:34:35.730Z,4.00
2023-02-06T16:37:10.845Z,4.20
2023-02-06T16:39:40.185Z,4.37
2023-02-06T16:42:09.299Z,3.97
2023-02-06T16:44:44.571Z,4.60
2023-02-06T16:47:15.892Z,3.40
2023-02-06T16:49:44.413Z,3.07
2023-02-06T16:52:19.022Z,2.80
2023-02-06T16:54:47.568Z,2.70
2023-02-06T16:57:22.241Z,2.20
2023-02-06T16:59:50.424Z,2.60
2023-02-06T17:02:18.885Z,2.70
2023-02-06T17:04:47.277Z,2.60
2023-02-06T17:07:19.235Z,3.07
2023-02-06T17:09:48.817Z,2.90
2023-02-06T17:12:19.108Z,3.47
2023-02-06T17:14:47.474Z,3.83
2023-02-06T17:17:18.898Z,3.20
2023-02-06T17:19:48.066Z,3.13
2023-02-06T17:22:18.080Z,3.03
2023-02-06T17:24:46.867Z,2.87
2023-02-06T17:27:17.125Z,3.00
2023-02-06T17:29:47.436Z,3.00
2023-02-06T17:32:21.716Z,3.80
2023-02-06T17:34:50.815Z,2.80
2023-02-06T17:37:21.621Z,3.10
2023-02-06T17:39:50.807Z,2.30
2023-02-06T17:42:21.976Z,2.93
2023-02-06T17:44:50.774Z,1.93
2023-02-06T17:47:19.064Z,2.30
2023-02-06T17:49:47.823Z,2.67
2023-02-06T17:52:16.532Z,2.03
2023-02-06T17:54:48.582Z,2.47
2023-02-06T17:57:16.774Z,2.40
2023-02-06T17:59:46.919Z,2.87
2023-02-06T18:02:15.480Z,2.50
2023-02-06T18:04:43.690Z,3.27
2023-02-06T18:07:11.945Z,3.07
2023-02-06T18:09:42.031Z,2.90
2023-02-06T18:12:12.192Z,2.80
2023-02-06T18:14:40.618Z,2.53
2023-02-06T18:17:09.259Z,2.90
2023-02-06T18:19:42.109Z,2.70
2023-02-06T18:22:13.441Z,2.40
2023-02-06T18:24:42.082Z,2.53
2023-02-06T18:27:12.154Z,3.27
2023-02-06T18:29:50.444Z,3.17
2023-02-06T18:32:20.117Z,3.80
2023-02-06T18:34:48.447Z,3.23
2023-02-06T18:37:20.792Z,4.47
2023-02-06T18:39:49.152Z,3.67
2023-02-06T18:42:35.950Z,2.60
2023-02-06T18:45:04.401Z,4.90
2023-02-06T18:47:32.634Z,4.87
2023-02-06T18:50:00.703Z,3.27
2023-02-06T18:52:29.131Z,3.43
2023-02-06T18:54:57.233Z,3.43
2023-02-06T18:57:26.620Z,2.83
2023-02-06T18:59:54.651Z,3.33
2023-02-06T19:02:23.362Z,2.80
2023-02-06T19:04:52.284Z,4.20
2023-02-06T19:07:20.400Z,3.10
2023-02-06T19:09:48.710Z,3.23
2023-02-06T19:12:16.875Z,3.73
2023-02-06T19:14:46.332Z,3.63
2023-02-06T19:17:14.396Z,4.20
2023-02-06T19:19:42.462Z,4.73
2023-02-06T19:22:10.528Z,3.90
2023-02-06T19:24:38.588Z,3.47
2023-02-06T19:27:06.599Z,3.57
2023-02-06T19:29:36.566Z,4.20
2023-02-06T19:32:08.273Z,4.83
2023-02-06T19:34:38.557Z,4.60
2023-02-06T19:37:07.564Z,4.90
2023-02-06T19:39:37.023Z,5.43
2023-02-06T19:42:06.787Z,4.40
2023-02-06T19:44:35.272Z,5.20
2023-02-06T19:47:03.757Z,5.40
2023-02-06T19:49:33.144Z,4.87
2023-02-06T19:52:01.884Z,4.87
2023-02-06T19:54:29.901Z,5.13
2023-02-06T19:56:58.023Z,5.97
2023-02-06T19:59:29.029Z,4.80
2023-02-06T20:01:58.799Z,5.50
2023-02-06T20:04:28.931Z,5.10
2023-02-06T20:06:58.452Z,6.03
2023-02-06T20:09:28.279Z,4.90
2023-02-06T20:11:57.216Z,4.50
2023-02-06T20:14:26.945Z,4.30
2023-02-06T20:16:55.112Z,4.70
2023-02-06T20:19:27.999Z,5.07
2023-02-06T20:21:59.201Z,4.83
2023-02-06T20:24:30.209Z,4.87
2023-02-06T20:26:59.952Z,5.13
2023-02-06T20:29:32.618Z,6.80
2023-02-06T20:32:01.520Z,5.93
2023-02-06T20:34:29.874Z,5.77
2023-02-06T20:36:59.613Z,6.23
2023-02-06T20:39:28.749Z,5.97
2023-02-06T20:41:56.986Z,5.60
2023-02-06T20:44:25.060Z,5.57
2023-02-06T20:46:53.083Z,6.40
2023-02-06T20:49:23.941Z,5.93
2023-02-06T20:51:52.706Z,5.93
2023-02-06T20:54:22.917Z,7.07
2023-02-06T20:56:51.550Z,7.03
2023-02-06T20:59:21.140Z,5.90
2023-02-06T21:01:49.491Z,6.33
2023-02-06T21:04:18.621Z,7.10
2023-02-06T21:06:47.928Z,6.10
2023-02-06T21:09:16.707Z,6.83
2023-02-06T21:11:47.582Z,5.83
2023-02-06T21:14:16.287Z,6.60
2023-02-06T21:16:44.694Z,5.83
2023-02-06T21:19:14.585Z,5.90
2023-02-06T21:21:45.606Z,6.37
2023-02-06T21:24:14.777Z,6.80
2023-02-06T21:26:45.134Z,7.00
2023-02-06T21:29:16.100Z,6.63
2023-02-06T21:31:46.038Z,5.53
2023-02-06T21:34:16.937Z,6.33
2023-02-06T21:36:45.711Z,6.83
2023-02-06T21:39:16.953Z,6.27
2023-02-06T21:41:45.395Z,6.60
2023-02-06T21:44:14.726Z,6.27
2023-02-06T21:46:42.749Z,6.90
2023-02-06T21:49:11.634Z,6.00
2023-02-06T21:51:40.205Z,6.77
2023-02-06T21:54:08.506Z,6.60
2023-02-06T21:56:38.133Z,6.87
2023-02-06T21:59:07.264Z,5.93
2023-02-06T22:01:40.609Z,6.80
2023-02-06T22:04:09.683Z,6.20
2023-02-06T22:06:38.050Z,7.03
2023-02-06T22:09:08.418Z,6.57
2023-02-06T22:11:38.320Z,6.13
2023-02-06T22:14:07.939Z,6.13
2023-02-06T22:16:47.070Z,6.20
2023-02-06T22:19:15.685Z,6.00
2023-02-06T22:21:43.777Z,6.80
2023-02-06T22:24:15.840Z,6.33
2023-02-06T22:26:44.731Z,6.47
2023-02-06T22:29:15.588Z,5.87
2023-02-06T22:31:46.109Z,6.40
2023-02-06T22:34:17.361Z,7.00
2023-02-06T22:36:45.707Z,7.20
2023-02-06T22:39:15.151Z,6.10
2023-02-06T22:41:45.158Z,5.87
2023-02-06T22:44:16.286Z,6.40
2023-02-06T22:46:48.345Z,6.57
2023-02-06T22:49:16.431Z,6.73
2023-02-06T22:51:44.663Z,6.30
2023-02-06T22:54:13.576Z,6.80
2023-02-06T22:56:42.571Z,6.93
2023-02-06T22:59:12.499Z,6.90
2023-02-06T23:01:42.020Z,6.53
2023-02-06T23:04:15.181Z,6.63
2023-02-06T23:06:44.353Z,7.60
2023-02-06T23:09:14.809Z,6.57
2023-02-06T23:11:42.942Z,7.40
2023-02-06T23:14:13.521Z,6.83
2023-02-06T23:16:42.273Z,7.50
2023-02-06T23:19:13.026Z,7.20
2023-02-06T23:21:43.225Z,7.07
2023-02-06T23:24:11.604Z,7.60
2023-02-06T23:26:41.590Z,8.00
2023-02-06T23:29:10.905Z,8.30
2023-02-06T23:31:38.921Z,7.73
2023-02-06T23:34:06.932Z,7.50
2023-02-06T23:36:36.300Z,7.50
2023-02-06T23:39:05.947Z,7.70
2023-02-06T23:41:34.541Z,7.70
2023-02-06T23:44:07.742Z,7.30
2023-02-06T23:46:37.866Z,8.00
2023-02-06T23:49:06.676Z,7.73
2023-02-06T23:51:36.684Z,8.40
2023-02-06T23:54:05.216Z,8.20
2023-02-06T23:56:34.208Z,8.07
2023-02-06T23:59:04.022Z,7.97
